Shelby, South Dakota
Current Conditions -  °F | °C
As of 10:35 PM on Thursday 18 Dec 2014 (Local Time) from K9V9 Reporting Station
Overcast Overcast  
Wind Chill: 19°   Ceiling: 700
Heat Index: 26°   Visibility: 7mi
Dew Point: 24°   Wind: 7mph
Humidity: 92%   Direction: 160°SSE
Pressure: 30.1"   Gusts: NA
Location:  43.7732°N, 99.1697°W
Report Text: K9V9 190435Z AUTO 16006KT 7SM OVC007 M03/M04 A3010 RMK AO2 T10311042
Loading
Personal Weather Stations






























Interactive Weather Map New forecast layout! Learn more

10-Day Weather Forecast

Advertisements
Track Severe Weather on mobile